createdAt,value
2023-03-07T00:02:20.791Z,14.70
2023-03-07T00:04:47.731Z,14.95
2023-03-07T00:07:14.901Z,18.65
2023-03-07T00:09:42.355Z,16.58
2023-03-07T00:12:12.160Z,13.38
2023-03-07T00:14:39.465Z,13.73
2023-03-07T00:17:06.772Z,13.90
2023-03-07T00:19:35.151Z,14.18
2023-03-07T00:22:02.130Z,14.23
2023-03-07T00:24:29.042Z,13.63
2023-03-07T00:26:56.029Z,16.67
2023-03-07T00:29:23.036Z,24.67
2023-03-07T00:31:50.109Z,23.83
2023-03-07T00:34:17.174Z,23.05
2023-03-07T00:36:45.503Z,23.87
2023-03-07T00:39:12.658Z,22.42
2023-03-07T00:41:40.211Z,23.95
2023-03-07T00:44:07.553Z,23.52
2023-03-07T00:46:34.611Z,26.35
2023-03-07T00:49:01.622Z,24.17
2023-03-07T00:51:28.704Z,26.92
2023-03-07T00:53:57.039Z,24.83
2023-03-07T00:56:25.151Z,20.88
2023-03-07T00:58:52.399Z,18.52
2023-03-07T01:01:20.361Z,19.70
2023-03-07T01:03:53.633Z,16.88
2023-03-07T01:06:21.639Z,15.43
2023-03-07T01:08:48.556Z,16.40
2023-03-07T01:11:16.940Z,13.27
2023-03-07T01:13:44.188Z,14.30
2023-03-07T01:16:12.200Z,14.20
2023-03-07T01:18:39.568Z,14.00
2023-03-07T01:21:16.944Z,14.95
2023-03-07T01:23:44.700Z,14.82
2023-03-07T01:26:15.098Z,13.40
2023-03-07T01:28:43.705Z,14.20
2023-03-07T01:31:11.101Z,14.32
2023-03-07T01:33:38.050Z,14.70
2023-03-07T01:36:05.975Z,14.02
2023-03-07T01:38:34.312Z,14.57
2023-03-07T01:41:02.245Z,13.55
2023-03-07T01:43:30.118Z,12.75
2023-03-07T01:46:24.079Z,12.52
2023-03-07T01:48:54.276Z,12.95
2023-03-07T01:51:21.982Z,12.37
2023-03-07T01:53:49.773Z,12.70
2023-03-07T01:56:16.797Z,12.30
2023-03-07T01:58:44.017Z,13.23
2023-03-07T02:01:12.720Z,12.70
2023-03-07T02:03:43.190Z,13.73
2023-03-07T02:06:12.645Z,13.32
2023-03-07T02:08:40.394Z,13.07
2023-03-07T02:11:08.115Z,12.57
2023-03-07T02:13:35.510Z,12.07
2023-03-07T02:16:03.388Z,11.52
2023-03-07T02:18:31.081Z,12.40
2023-03-07T02:21:03.333Z,11.32
2023-03-07T02:23:36.005Z,13.95
2023-03-07T02:26:06.462Z,15.35
2023-03-07T02:28:35.419Z,15.57
2023-03-07T02:31:03.745Z,20.08
2023-03-07T02:33:30.877Z,17.35
2023-03-07T02:36:00.047Z,15.15
2023-03-07T02:38:27.202Z,17.95
2023-03-07T02:40:55.440Z,19.67
2023-03-07T02:43:22.961Z,17.55
2023-03-07T02:45:51.486Z,14.90
2023-03-07T02:48:18.458Z,14.68
2023-03-07T02:50:45.548Z,14.15
2023-03-07T02:53:12.863Z,15.33
2023-03-07T02:55:39.822Z,14.73
2023-03-07T02:58:06.783Z,14.43
2023-03-07T03:00:33.865Z,14.65
2023-03-07T03:03:02.232Z,14.57
2023-03-07T03:05:29.097Z,14.40
2023-03-07T03:07:56.489Z,13.40
2023-03-07T03:10:23.557Z,13.40
2023-03-07T03:12:50.564Z,13.88
2023-03-07T03:15:17.603Z,14.13
2023-03-07T03:17:44.628Z,13.77
2023-03-07T03:20:13.779Z,14.77
2023-03-07T03:22:41.040Z,13.70
2023-03-07T03:25:09.916Z,13.10
2023-03-07T03:27:37.399Z,12.80
2023-03-07T03:30:06.111Z,13.40
2023-03-07T03:32:33.486Z,13.90
2023-03-07T03:35:00.536Z,13.82
2023-03-07T03:37:28.953Z,14.75
2023-03-07T03:39:55.858Z,12.77
2023-03-07T03:42:23.054Z,12.67
2023-03-07T03:44:50.013Z,12.95
2023-03-07T03:47:16.982Z,12.48
2023-03-07T03:49:43.972Z,12.95
2023-03-07T03:52:11.209Z,13.40
2023-03-07T03:54:41.590Z,12.32
2023-03-07T03:57:08.612Z,12.57
2023-03-07T03:59:35.600Z,12.18
2023-03-07T04:02:02.677Z,12.32
2023-03-07T04:04:29.741Z,10.82
2023-03-07T04:06:56.602Z,12.43
2023-03-07T04:09:23.593Z,11.90
2023-03-07T04:11:51.970Z,11.93
2023-03-07T04:14:18.990Z,11.93
2023-03-07T04:16:46.018Z,11.25
2023-03-07T04:19:13.184Z,11.93
2023-03-07T04:21:40.801Z,11.43
2023-03-07T04:24:07.999Z,12.15
2023-03-07T04:26:35.112Z,11.52
2023-03-07T04:29:04.524Z,12.52
2023-03-07T04:31:31.555Z,12.48
2023-03-07T04:33:58.934Z,11.88
2023-03-07T04:36:25.877Z,12.05
2023-03-07T04:38:53.214Z,13.15
2023-03-07T04:41:21.203Z,13.50
2023-03-07T04:43:48.340Z,15.50
2023-03-07T04:46:17.411Z,13.77
2023-03-07T04:48:44.635Z,18.33
2023-03-07T04:51:11.857Z,14.18
2023-03-07T04:53:38.836Z,14.93
2023-03-07T04:56:06.825Z,17.45
2023-03-07T04:58:34.340Z,18.23
2023-03-07T05:01:01.729Z,18.05
2023-03-07T05:03:30.616Z,18.85
2023-03-07T05:06:00.809Z,19.02
2023-03-07T05:08:27.949Z,15.05
2023-03-07T05:10:54.980Z,14.63
2023-03-07T05:13:21.926Z,12.68
2023-03-07T05:15:50.717Z,12.23
2023-03-07T05:18:17.820Z,12.80
2023-03-07T05:20:46.164Z,12.30
2023-03-07T05:23:13.353Z,11.48
2023-03-07T05:25:42.050Z,11.32
2023-03-07T05:28:10.506Z,12.43
2023-03-07T05:30:37.434Z,10.35
2023-03-07T05:33:04.590Z,10.20
2023-03-07T05:35:31.686Z,10.43
2023-03-07T05:38:00.406Z,11.10
2023-03-07T05:40:27.404Z,11.15
2023-03-07T05:42:54.619Z,12.67
2023-03-07T05:45:21.631Z,10.45
2023-03-07T05:47:48.594Z,11.55
2023-03-07T05:50:15.630Z,10.05
2023-03-07T05:52:42.588Z,9.93
2023-03-07T05:55:11.107Z,9.73
2023-03-07T05:57:38.129Z,8.65
2023-03-07T06:00:06.576Z,8.82
2023-03-07T06:02:33.565Z,8.95
2023-03-07T06:05:00.594Z,8.75
2023-03-07T06:07:27.643Z,8.95
2023-03-07T06:09:54.687Z,8.90
2023-03-07T06:12:23.183Z,9.27
2023-03-07T06:14:53.558Z,8.82
2023-03-07T06:17:20.452Z,9.00
2023-03-07T06:19:47.418Z,9.30
2023-03-07T06:22:24.171Z,11.15
2023-03-07T06:24:51.345Z,11.18
2023-03-07T06:27:18.310Z,9.40
2023-03-07T06:29:48.610Z,9.48
2023-03-07T06:32:15.612Z,8.77
2023-03-07T06:34:42.618Z,9.00
2023-03-07T06:37:09.778Z,9.38
2023-03-07T06:39:36.765Z,9.90
2023-03-07T06:42:03.754Z,10.18
2023-03-07T06:44:30.742Z,10.82
2023-03-07T06:46:59.299Z,11.53
2023-03-07T06:49:26.338Z,10.45
2023-03-07T06:51:53.643Z,8.88
2023-03-07T06:54:20.793Z,9.50
2023-03-07T06:56:48.036Z,10.90
2023-03-07T06:59:15.072Z,7.57
2023-03-07T07:01:42.229Z,8.13
2023-03-07T07:04:11.399Z,8.85
2023-03-07T07:06:38.381Z,10.88
2023-03-07T07:09:05.823Z,10.73
2023-03-07T07:11:32.864Z,9.00
2023-03-07T07:13:59.813Z,8.88
2023-03-07T07:16:26.860Z,8.52
2023-03-07T07:18:53.911Z,9.65
2023-03-07T07:21:38.319Z,9.02
2023-03-07T07:24:16.453Z,10.87
2023-03-07T07:26:45.420Z,13.45
2023-03-07T07:29:13.086Z,11.50
2023-03-07T07:31:40.584Z,10.00
2023-03-07T07:34:08.629Z,8.35
2023-03-07T07:36:35.653Z,7.40
2023-03-07T07:39:05.522Z,7.60
2023-03-07T07:41:34.362Z,7.38
2023-03-07T07:44:01.900Z,8.65
2023-03-07T07:46:28.919Z,8.30
2023-03-07T07:48:56.482Z,8.93
2023-03-07T07:51:23.885Z,8.43
2023-03-07T07:53:51.188Z,8.43
2023-03-07T07:56:18.556Z,10.18
2023-03-07T07:58:49.457Z,9.00
2023-03-07T08:01:17.409Z,9.00
2023-03-07T08:03:49.511Z,10.02
2023-03-07T08:06:19.977Z,10.60
2023-03-07T08:08:48.236Z,8.82
2023-03-07T08:11:15.530Z,10.97
2023-03-07T08:13:45.100Z,10.27
2023-03-07T08:16:15.156Z,9.77
2023-03-07T08:18:42.486Z,8.23
2023-03-07T08:21:09.670Z,9.15
2023-03-07T08:23:37.024Z,9.65
2023-03-07T08:26:07.274Z,8.70
2023-03-07T08:28:34.926Z,8.75
2023-03-07T08:31:06.570Z,8.82
2023-03-07T08:33:35.143Z,8.50
2023-03-07T08:36:02.980Z,8.27
2023-03-07T08:38:31.963Z,8.48
2023-03-07T08:41:02.791Z,8.15
2023-03-07T08:43:29.988Z,8.75
2023-03-07T08:46:35.117Z,9.20
2023-03-07T08:49:06.056Z,10.30
2023-03-07T08:51:33.140Z,10.13
2023-03-07T08:54:00.436Z,9.63
2023-03-07T08:56:27.686Z,9.80
2023-03-07T08:58:54.951Z,10.82
2023-03-07T09:01:21.947Z,13.23
2023-03-07T09:03:49.164Z,15.32
2023-03-07T09:06:19.014Z,16.25
2023-03-07T09:08:46.263Z,16.58
2023-03-07T09:11:13.451Z,10.70
2023-03-07T09:13:51.040Z,13.05
2023-03-07T09:16:20.933Z,10.65
2023-03-07T09:18:48.119Z,10.00
2023-03-07T09:21:15.584Z,9.25
2023-03-07T09:23:44.176Z,9.35
2023-03-07T09:26:11.700Z,10.60
2023-03-07T09:28:38.647Z,10.60
2023-03-07T09:31:08.117Z,8.70
2023-03-07T09:33:35.214Z,9.02
2023-03-07T09:36:07.180Z,10.95
2023-03-07T09:38:34.426Z,10.23
2023-03-07T09:41:13.086Z,11.25
2023-03-07T09:43:43.407Z,10.35
2023-03-07T09:46:14.494Z,8.65
2023-03-07T09:48:53.555Z,9.93
2023-03-07T09:51:25.697Z,13.03
2023-03-07T09:53:55.610Z,11.23
2023-03-07T09:56:25.206Z,9.25
2023-03-07T09:58:59.703Z,12.18
2023-03-07T10:01:32.586Z,9.30
2023-03-07T10:04:01.398Z,12.77
2023-03-07T10:06:31.005Z,11.55
2023-03-07T10:08:58.552Z,8.77
2023-03-07T10:11:34.759Z,8.02
2023-03-07T10:14:09.584Z,8.48
2023-03-07T10:16:41.761Z,8.63
2023-03-07T10:19:14.397Z,8.73
2023-03-07T10:21:46.530Z,8.07
2023-03-07T10:24:30.746Z,8.95
2023-03-07T10:27:03.548Z,9.00
2023-03-07T10:29:41.898Z,8.60
2023-03-07T10:32:16.554Z,7.97
2023-03-07T10:34:44.212Z,8.65
2023-03-07T10:37:21.108Z,8.77
2023-03-07T10:39:53.676Z,8.85
2023-03-07T10:42:29.482Z,8.48
2023-03-07T10:45:02.934Z,8.85
2023-03-07T10:47:31.539Z,9.45
2023-03-07T10:50:02.626Z,9.73
2023-03-07T10:52:33.156Z,9.60
2023-03-07T10:55:33.087Z,9.07
2023-03-07T10:58:24.649Z,10.77
2023-03-07T11:01:03.791Z,8.52
2023-03-07T11:03:52.181Z,9.52
2023-03-07T11:06:32.492Z,8.50
2023-03-07T11:09:09.370Z,8.57
2023-03-07T11:11:40.856Z,9.77
2023-03-07T11:14:08.633Z,8.40
2023-03-07T11:16:48.385Z,9.27
2023-03-07T11:19:27.969Z,9.30
2023-03-07T11:21:55.491Z,8.55
2023-03-07T11:24:42.889Z,9.33
2023-03-07T11:27:20.161Z,8.75
2023-03-07T11:30:05.225Z,8.90
2023-03-07T11:32:42.458Z,9.73
2023-03-07T11:35:13.950Z,10.37
2023-03-07T11:37:46.405Z,9.50
2023-03-07T11:40:22.382Z,9.80
2023-03-07T11:42:52.014Z,10.20
2023-03-07T11:45:26.645Z,10.88
2023-03-07T11:48:03.891Z,9.43
2023-03-07T11:50:31.537Z,10.67
2023-03-07T11:53:19.726Z,9.43
2023-03-07T11:55:50.172Z,8.75
2023-03-07T11:58:33.014Z,10.95
2023-03-07T12:01:15.044Z,10.02
2023-03-07T12:03:51.733Z,10.52
2023-03-07T12:06:27.153Z,8.57
2023-03-07T12:08:59.464Z,8.30
2023-03-07T12:11:35.543Z,8.55
2023-03-07T12:14:08.007Z,7.20
2023-03-07T12:16:39.273Z,9.18
2023-03-07T12:19:13.071Z,9.40
2023-03-07T12:21:49.741Z,8.40
2023-03-07T12:24:20.286Z,9.38
2023-03-07T12:26:51.371Z,8.02
2023-03-07T12:29:20.656Z,8.13
2023-03-07T12:31:49.307Z,7.97
2023-03-07T12:34:20.636Z,7.97
2023-03-07T12:36:52.641Z,8.15
2023-03-07T12:39:23.973Z,8.43
2023-03-07T12:42:02.189Z,9.43
2023-03-07T12:44:38.294Z,9.05
2023-03-07T12:47:10.501Z,9.00
2023-03-07T12:49:49.730Z,8.15
2023-03-07T12:52:22.679Z,8.75
2023-03-07T12:54:55.986Z,8.52
2023-03-07T12:57:26.932Z,8.18
2023-03-07T12:59:57.600Z,10.13
2023-03-07T13:02:27.388Z,10.32
2023-03-07T13:04:57.795Z,8.25
2023-03-07T13:07:27.575Z,8.13
2023-03-07T13:09:55.529Z,8.82
2023-03-07T13:12:24.467Z,9.77
2023-03-07T13:14:52.451Z,9.13
2023-03-07T13:17:38.296Z,8.50
2023-03-07T13:20:28.007Z,8.10
2023-03-07T13:23:12.000Z,7.85
2023-03-07T13:25:59.908Z,8.55
2023-03-07T13:28:51.613Z,8.68
2023-03-07T13:31:36.838Z,8.00
2023-03-07T13:34:22.958Z,7.17
2023-03-07T13:36:51.495Z,8.57
2023-03-07T13:39:42.484Z,8.05
2023-03-07T13:42:39.727Z,8.40
2023-03-07T13:45:21.542Z,7.57
2023-03-07T13:47:48.787Z,8.00
2023-03-07T13:50:37.397Z,7.93
2023-03-07T13:53:11.344Z,7.63
2023-03-07T13:55:39.641Z,9.27
2023-03-07T13:58:16.677Z,7.97
2023-03-07T14:00:50.289Z,8.13
2023-03-07T14:03:35.121Z,7.80
2023-03-07T14:06:04.716Z,8.82
2023-03-07T14:08:34.109Z,8.68
2023-03-07T14:11:01.812Z,8.13
2023-03-07T14:13:52.840Z,9.88
2023-03-07T14:16:35.350Z,10.55
2023-03-07T14:19:07.757Z,8.00
2023-03-07T14:21:41.917Z,8.57
2023-03-07T14:24:24.093Z,7.90
2023-03-07T14:26:55.539Z,6.87
2023-03-07T14:29:24.759Z,7.65
2023-03-07T14:31:53.301Z,7.28
2023-03-07T14:34:26.875Z,8.40
2023-03-07T14:36:55.318Z,8.25
2023-03-07T14:39:23.224Z,8.97
2023-03-07T14:41:57.077Z,7.68
2023-03-07T14:44:33.499Z,7.90
2023-03-07T14:47:07.264Z,7.65
2023-03-07T14:49:37.861Z,8.38
2023-03-07T14:52:05.023Z,8.10
2023-03-07T14:54:33.585Z,9.40
2023-03-07T14:57:01.459Z,9.15
2023-03-07T14:59:30.269Z,8.07
2023-03-07T15:01:58.070Z,7.53
2023-03-07T15:04:26.677Z,7.97
2023-03-07T15:06:55.846Z,7.32
2023-03-07T15:09:23.244Z,8.00
2023-03-07T15:11:52.407Z,8.10
2023-03-07T15:14:22.144Z,8.13
2023-03-07T15:16:51.392Z,8.30
2023-03-07T15:19:20.670Z,8.50
2023-03-07T15:21:50.056Z,7.72
2023-03-07T15:24:18.985Z,9.07
2023-03-07T15:26:49.795Z,8.40
2023-03-07T15:29:17.116Z,8.63
2023-03-07T15:31:53.704Z,9.27
2023-03-07T15:34:23.114Z,9.20
2023-03-07T15:36:50.209Z,9.68
2023-03-07T15:39:38.448Z,9.57
2023-03-07T15:42:19.452Z,9.03
2023-03-07T15:44:52.907Z,8.48
2023-03-07T15:47:21.339Z,8.40
2023-03-07T15:49:49.299Z,9.60
2023-03-07T15:52:28.305Z,8.82
2023-03-07T15:54:56.284Z,9.50
2023-03-07T15:57:24.198Z,8.82
2023-03-07T15:59:54.127Z,9.00
2023-03-07T16:02:51.275Z,9.85
2023-03-07T16:05:36.477Z,9.35
2023-03-07T16:08:06.166Z,9.90
2023-03-07T16:10:33.366Z,9.00
2023-03-07T16:13:01.228Z,8.40
2023-03-07T16:15:28.656Z,8.38
2023-03-07T16:17:56.569Z,8.93
2023-03-07T16:20:24.778Z,8.67
2023-03-07T16:22:53.605Z,10.15
2023-03-07T16:25:20.950Z,10.43
2023-03-07T16:27:50.377Z,10.48
2023-03-07T16:30:19.026Z,14.07
2023-03-07T16:32:46.157Z,13.70
2023-03-07T16:35:16.957Z,12.80
2023-03-07T16:37:44.221Z,11.32
2023-03-07T16:40:14.927Z,9.90
2023-03-07T16:42:42.707Z,10.85
2023-03-07T16:45:14.395Z,12.10
2023-03-07T16:47:41.565Z,9.80
2023-03-07T16:50:12.785Z,11.07
2023-03-07T16:52:39.878Z,9.18
2023-03-07T16:55:07.615Z,9.98
2023-03-07T16:57:36.310Z,9.82
2023-03-07T17:00:05.413Z,9.50
2023-03-07T17:02:32.644Z,10.95
2023-03-07T17:04:59.793Z,11.48
2023-03-07T17:07:26.788Z,12.10
2023-03-07T17:09:55.129Z,12.10
2023-03-07T17:12:23.192Z,10.90
2023-03-07T17:14:51.636Z,9.93
2023-03-07T17:17:22.028Z,9.82
2023-03-07T17:19:49.011Z,9.25
2023-03-07T17:22:17.171Z,10.40
2023-03-07T17:24:45.213Z,10.98
2023-03-07T17:27:13.863Z,12.77
2023-03-07T17:29:42.904Z,12.02
2023-03-07T17:32:11.608Z,10.75
2023-03-07T17:34:39.454Z,11.47
2023-03-07T17:37:06.861Z,11.50
2023-03-07T17:39:34.500Z,11.68
2023-03-07T17:42:02.106Z,11.07
2023-03-07T17:44:29.541Z,11.77
2023-03-07T17:46:57.898Z,12.90
2023-03-07T17:49:31.761Z,14.55
2023-03-07T17:51:58.988Z,15.07
2023-03-07T17:54:26.204Z,15.65
2023-03-07T17:56:53.479Z,13.40
2023-03-07T17:59:23.250Z,12.38
2023-03-07T18:01:50.732Z,11.48
2023-03-07T18:04:17.944Z,10.63
2023-03-07T18:06:46.914Z,12.18
2023-03-07T18:09:15.389Z,12.45
2023-03-07T18:11:42.638Z,12.53
2023-03-07T18:14:11.320Z,12.05
2023-03-07T18:16:38.398Z,15.48
2023-03-07T18:19:06.900Z,15.65
2023-03-07T18:21:36.947Z,14.33
2023-03-07T18:24:15.935Z,13.82
2023-03-07T18:26:43.043Z,14.25
2023-03-07T18:29:10.216Z,13.73
2023-03-07T18:31:37.518Z,13.50
2023-03-07T18:34:05.296Z,12.80
2023-03-07T18:36:33.011Z,13.13
2023-03-07T18:38:59.949Z,13.52
2023-03-07T18:41:29.063Z,12.85
2023-03-07T18:43:57.552Z,14.23
2023-03-07T18:46:25.892Z,13.75
2023-03-07T18:48:53.261Z,12.53
2023-03-07T18:51:24.998Z,13.38
2023-03-07T18:53:52.850Z,12.40
2023-03-07T18:56:20.343Z,12.15
2023-03-07T18:58:49.506Z,12.57
2023-03-07T19:01:17.451Z,12.77
2023-03-07T19:03:45.695Z,13.27
2023-03-07T19:06:12.908Z,12.73
2023-03-07T19:08:40.364Z,13.38
2023-03-07T19:11:08.258Z,13.80
2023-03-07T19:13:35.716Z,14.10
2023-03-07T19:16:05.661Z,16.08
2023-03-07T19:18:33.585Z,21.77
2023-03-07T19:21:00.685Z,23.50
2023-03-07T19:23:27.999Z,23.83
2023-03-07T19:25:55.204Z,21.98
2023-03-07T19:28:22.815Z,18.98
2023-03-07T19:30:51.666Z,15.90
2023-03-07T19:33:23.153Z,14.18
2023-03-07T19:36:00.598Z,16.90
2023-03-07T19:38:28.344Z,24.35
2023-03-07T19:40:55.584Z,31.55
2023-03-07T19:43:24.299Z,36.08
2023-03-07T19:45:53.484Z,29.08
2023-03-07T19:48:20.922Z,25.30
2023-03-07T19:50:49.669Z,22.77
2023-03-07T19:53:17.772Z,17.00
2023-03-07T19:55:45.117Z,14.68
2023-03-07T19:58:12.793Z,13.02
2023-03-07T20:00:40.474Z,12.93
2023-03-07T20:03:09.349Z,14.88
2023-03-07T20:05:40.415Z,17.15
2023-03-07T20:08:09.549Z,17.27
2023-03-07T20:10:36.847Z,14.55
2023-03-07T20:13:04.723Z,12.65
2023-03-07T20:15:31.998Z,13.10
2023-03-07T20:18:01.835Z,12.60
2023-03-07T20:20:29.174Z,15.45
2023-03-07T20:22:57.814Z,14.13
2023-03-07T20:25:29.506Z,15.10
2023-03-07T20:27:56.525Z,18.13
2023-03-07T20:30:23.894Z,18.33
2023-03-07T20:32:51.288Z,17.35
2023-03-07T20:35:18.495Z,17.17
2023-03-07T20:37:46.557Z,16.35
2023-03-07T20:40:13.817Z,16.40
2023-03-07T20:42:42.785Z,18.08
2023-03-07T20:45:10.719Z,17.70
2023-03-07T20:47:38.572Z,20.02
2023-03-07T20:50:06.730Z,21.75
2023-03-07T20:52:35.746Z,22.88
2023-03-07T20:55:03.144Z,22.83
2023-03-07T20:57:30.495Z,22.20
2023-03-07T21:00:00.292Z,24.80
2023-03-07T21:02:28.021Z,22.95
2023-03-07T21:04:54.919Z,20.98
2023-03-07T21:07:22.104Z,20.38
2023-03-07T21:09:51.102Z,20.85
2023-03-07T21:12:19.236Z,22.33
2023-03-07T21:14:46.532Z,21.15
2023-03-07T21:17:14.862Z,20.23
2023-03-07T21:19:42.357Z,21.52
2023-03-07T21:22:09.452Z,21.98
2023-03-07T21:24:36.642Z,20.98
2023-03-07T21:27:04.054Z,18.70
2023-03-07T21:29:31.481Z,19.30
2023-03-07T21:31:58.918Z,18.75
2023-03-07T21:34:28.598Z,17.00
2023-03-07T21:36:57.131Z,17.05
2023-03-07T21:39:24.494Z,16.42
2023-03-07T21:41:51.723Z,17.45
2023-03-07T21:44:18.835Z,17.35
2023-03-07T21:46:46.276Z,18.45
2023-03-07T21:49:13.516Z,18.50
2023-03-07T21:51:42.186Z,20.13
2023-03-07T21:54:09.646Z,26.05
2023-03-07T21:56:36.891Z,22.30
2023-03-07T21:59:03.921Z,21.85
2023-03-07T22:01:31.071Z,21.65
2023-03-07T22:03:59.159Z,17.80
2023-03-07T22:06:26.406Z,16.40
2023-03-07T22:08:54.970Z,14.68
2023-03-07T22:11:22.293Z,12.80
2023-03-07T22:13:49.310Z,12.73
2023-03-07T22:16:17.495Z,11.07
2023-03-07T22:18:44.700Z,10.75
2023-03-07T22:21:14.284Z,10.15
2023-03-07T22:23:41.804Z,11.02
2023-03-07T22:26:11.637Z,11.32
2023-03-07T22:28:40.627Z,10.77
2023-03-07T22:31:09.064Z,12.80
2023-03-07T22:33:36.002Z,13.48
2023-03-07T22:36:04.587Z,13.40
2023-03-07T22:38:32.037Z,13.70
2023-03-07T22:41:02.198Z,13.38
2023-03-07T22:43:32.138Z,12.60
2023-03-07T22:45:59.339Z,13.32
2023-03-07T22:48:26.428Z,12.50
2023-03-07T22:50:53.653Z,12.02
2023-03-07T22:53:20.730Z,10.95
2023-03-07T22:55:47.605Z,11.20
2023-03-07T22:58:14.526Z,11.27
2023-03-07T23:00:43.763Z,9.80
2023-03-07T23:03:11.292Z,9.35
2023-03-07T23:05:38.352Z,9.53
2023-03-07T23:08:05.922Z,9.23
2023-03-07T23:10:33.105Z,9.15
2023-03-07T23:13:00.308Z,9.07
2023-03-07T23:15:27.591Z,9.20
2023-03-07T23:17:56.038Z,8.77
2023-03-07T23:20:26.048Z,8.98
2023-03-07T23:22:53.403Z,11.65
2023-03-07T23:25:20.817Z,12.48
2023-03-07T23:27:48.212Z,11.07
2023-03-07T23:30:15.256Z,10.48
2023-03-07T23:32:42.580Z,10.65
2023-03-07T23:35:11.725Z,9.77
2023-03-07T23:37:39.073Z,11.05
2023-03-07T23:40:07.358Z,8.73
2023-03-07T23:42:34.695Z,10.05
2023-03-07T23:45:01.778Z,10.07
2023-03-07T23:47:29.583Z,19.05
2023-03-07T23:49:56.536Z,18.13
2023-03-07T23:52:25.222Z,15.80
2023-03-07T23:54:52.207Z,12.77
2023-03-07T23:57:19.157Z,13.05
2023-03-07T23:59:47.812Z,10.88
